sensor_id;sensor_type;location;lat;lon;timestamp;P1;durP1;ratioP1;P2;durP2;ratioP2
13793;SDS011;31160;49.500;7.772;2023-07-29T00:02:01;1.87;;;1.20;;
13793;SDS011;31160;49.500;7.772;2023-07-29T00:04:28;2.67;;;1.30;;
13793;SDS011;31160;49.500;7.772;2023-07-29T00:06:54;1.30;;;1.13;;
13793;SDS011;31160;49.500;7.772;2023-07-29T00:09:21;8.37;;;1.33;;
13793;SDS011;31160;49.500;7.772;2023-07-29T00:11:48;2.10;;;1.27;;
13793;SDS011;31160;49.500;7.772;2023-07-29T00:14:14;1.33;;;1.23;;
13793;SDS011;31160;49.500;7.772;2023-07-29T00:16:41;2.20;;;1.13;;
13793;SDS011;31160;49.500;7.772;2023-07-29T00:19:09;1.17;;;1.07;;
13793;SDS011;31160;49.500;7.772;2023-07-29T00:21:35;1.90;;;1.40;;
13793;SDS011;31160;49.500;7.772;2023-07-29T00:24:02;2.67;;;1.10;;
13793;SDS011;31160;49.500;7.772;2023-07-29T00:26:29;2.50;;;1.30;;
13793;SDS011;31160;49.500;7.772;2023-07-29T00:28:57;1.30;;;1.17;;
13793;SDS011;31160;49.500;7.772;2023-07-29T00:31:24;1.67;;;1.40;;
13793;SDS011;31160;49.500;7.772;2023-07-29T00:33:51;2.10;;;1.30;;
13793;SDS011;31160;49.500;7.772;2023-07-29T00:36:19;2.47;;;1.10;;
13793;SDS011;31160;49.500;7.772;2023-07-29T00:38:46;6.50;;;1.23;;
13793;SDS011;31160;49.500;7.772;2023-07-29T00:41:14;1.20;;;1.10;;
13793;SDS011;31160;49.500;7.772;2023-07-29T00:43:41;1.73;;;1.17;;
13793;SDS011;31160;49.500;7.772;2023-07-29T00:46:08;2.43;;;1.40;;
13793;SDS011;31160;49.500;7.772;2023-07-29T00:48:36;3.57;;;1.10;;
13793;SDS011;31160;49.500;7.772;2023-07-29T00:51:03;2.50;;;1.10;;
13793;SDS011;31160;49.500;7.772;2023-07-29T00:53:30;2.93;;;1.10;;
13793;SDS011;31160;49.500;7.772;2023-07-29T00:55:57;1.10;;;1.00;;
13793;SDS011;31160;49.500;7.772;2023-07-29T00:58:24;2.27;;;1.03;;
13793;SDS011;31160;49.500;7.772;2023-07-29T01:00:51;2.93;;;1.00;;
13793;SDS011;31160;49.500;7.772;2023-07-29T01:03:19;1.43;;;1.00;;
13793;SDS011;31160;49.500;7.772;2023-07-29T01:05:57;1.50;;;1.40;;
13793;SDS011;31160;49.500;7.772;2023-07-29T01:08:38;3.13;;;1.20;;
13793;SDS011;31160;49.500;7.772;2023-07-29T01:11:33;2.40;;;1.10;;
13793;SDS011;31160;49.500;7.772;2023-07-29T01:14:14;2.10;;;1.23;;
13793;SDS011;31160;49.500;7.772;2023-07-29T01:16:53;3.40;;;1.30;;
13793;SDS011;31160;49.500;7.772;2023-07-29T01:19:28;3.03;;;1.40;;
13793;SDS011;31160;49.500;7.772;2023-07-29T01:22:07;4.83;;;1.93;;
13793;SDS011;31160;49.500;7.772;2023-07-29T01:24:34;1.33;;;1.10;;
13793;SDS011;31160;49.500;7.772;2023-07-29T01:27:01;2.87;;;1.20;;
13793;SDS011;31160;49.500;7.772;2023-07-29T01:29:30;2.30;;;1.10;;
13793;SDS011;31160;49.500;7.772;2023-07-29T01:31:58;3.27;;;1.40;;
13793;SDS011;31160;49.500;7.772;2023-07-29T01:35:15;1.83;;;1.07;;
13793;SDS011;31160;49.500;7.772;2023-07-29T01:37:26;2.30;;;1.17;;
13793;SDS011;31160;49.500;7.772;2023-07-29T01:39:56;1.30;;;1.00;;
13793;SDS011;31160;49.500;7.772;2023-07-29T01:42:25;1.57;;;1.20;;
13793;SDS011;31160;49.500;7.772;2023-07-29T01:44:55;2.57;;;1.17;;
13793;SDS011;31160;49.500;7.772;2023-07-29T01:47:23;6.10;;;1.17;;
13793;SDS011;31160;49.500;7.772;2023-07-29T01:49:49;0.97;;;0.90;;
13793;SDS011;31160;49.500;7.772;2023-07-29T01:52:17;2.87;;;1.43;;
13793;SDS011;31160;49.500;7.772;2023-07-29T01:54:44;2.30;;;1.20;;
13793;SDS011;31160;49.500;7.772;2023-07-29T01:57:11;4.83;;;2.93;;
13793;SDS011;31160;49.500;7.772;2023-07-29T01:59:37;4.80;;;4.30;;
13793;SDS011;31160;49.500;7.772;2023-07-29T02:02:04;2.07;;;1.50;;
13793;SDS011;31160;49.500;7.772;2023-07-29T02:04:31;3.30;;;1.10;;
13793;SDS011;31160;49.500;7.772;2023-07-29T02:06:58;3.07;;;1.23;;
13793;SDS011;31160;49.500;7.772;2023-07-29T02:09:25;5.43;;;1.60;;
13793;SDS011;31160;49.500;7.772;2023-07-29T02:11:52;3.50;;;1.20;;
13793;SDS011;31160;49.500;7.772;2023-07-29T02:14:18;1.20;;;1.10;;
13793;SDS011;31160;49.500;7.772;2023-07-29T02:16:45;1.30;;;1.10;;
13793;SDS011;31160;49.500;7.772;2023-07-29T02:19:12;2.70;;;1.10;;
13793;SDS011;31160;49.500;7.772;2023-07-29T02:21:39;4.87;;;0.90;;
13793;SDS011;31160;49.500;7.772;2023-07-29T02:24:05;3.87;;;0.90;;
13793;SDS011;31160;49.500;7.772;2023-07-29T02:26:32;1.73;;;0.90;;
13793;SDS011;31160;49.500;7.772;2023-07-29T02:28:59;1.93;;;1.00;;
13793;SDS011;31160;49.500;7.772;2023-07-29T02:31:26;3.80;;;1.00;;
13793;SDS011;31160;49.500;7.772;2023-07-29T02:33:53;2.30;;;0.90;;
13793;SDS011;31160;49.500;7.772;2023-07-29T02:36:20;1.77;;;1.03;;
13793;SDS011;31160;49.500;7.772;2023-07-29T02:38:47;4.33;;;1.00;;
13793;SDS011;31160;49.500;7.772;2023-07-29T02:41:14;2.17;;;0.90;;
13793;SDS011;31160;49.500;7.772;2023-07-29T02:43:42;3.30;;;0.80;;
13793;SDS011;31160;49.500;7.772;2023-07-29T02:46:10;1.30;;;1.13;;
13793;SDS011;31160;49.500;7.772;2023-07-29T02:48:36;2.67;;;1.03;;
13793;SDS011;31160;49.500;7.772;2023-07-29T02:51:03;1.40;;;0.83;;
13793;SDS011;31160;49.500;7.772;2023-07-29T02:53:30;1.93;;;1.33;;
13793;SDS011;31160;49.500;7.772;2023-07-29T02:55:57;1.10;;;1.00;;
13793;SDS011;31160;49.500;7.772;2023-07-29T02:58:23;1.73;;;0.90;;
13793;SDS011;31160;49.500;7.772;2023-07-29T03:00:52;1.57;;;1.20;;
13793;SDS011;31160;49.500;7.772;2023-07-29T03:03:19;1.77;;;1.20;;
13793;SDS011;31160;49.500;7.772;2023-07-29T03:05:46;2.57;;;1.13;;
13793;SDS011;31160;49.500;7.772;2023-07-29T03:08:13;3.67;;;1.10;;
13793;SDS011;31160;49.500;7.772;2023-07-29T03:10:39;3.23;;;1.30;;
13793;SDS011;31160;49.500;7.772;2023-07-29T03:13:08;1.63;;;0.90;;
13793;SDS011;31160;49.500;7.772;2023-07-29T03:15:35;5.13;;;1.27;;
13793;SDS011;31160;49.500;7.772;2023-07-29T03:18:01;1.93;;;1.07;;
13793;SDS011;31160;49.500;7.772;2023-07-29T03:20:28;2.60;;;0.93;;
13793;SDS011;31160;49.500;7.772;2023-07-29T03:22:55;1.20;;;1.07;;
13793;SDS011;31160;49.500;7.772;2023-07-29T03:25:22;1.30;;;1.20;;
13793;SDS011;31160;49.500;7.772;2023-07-29T03:27:49;3.10;;;1.23;;
13793;SDS011;31160;49.500;7.772;2023-07-29T03:30:19;1.23;;;1.10;;
13793;SDS011;31160;49.500;7.772;2023-07-29T03:32:48;1.67;;;1.00;;
13793;SDS011;31160;49.500;7.772;2023-07-29T03:35:16;2.27;;;0.90;;
13793;SDS011;31160;49.500;7.772;2023-07-29T03:37:42;1.10;;;1.00;;
13793;SDS011;31160;49.500;7.772;2023-07-29T03:40:09;2.10;;;1.03;;
13793;SDS011;31160;49.500;7.772;2023-07-29T03:42:36;3.00;;;1.20;;
13793;SDS011;31160;49.500;7.772;2023-07-29T03:45:03;2.47;;;1.30;;
13793;SDS011;31160;49.500;7.772;2023-07-29T03:47:30;8.10;;;1.43;;
13793;SDS011;31160;49.500;7.772;2023-07-29T03:49:58;2.53;;;1.57;;
13793;SDS011;31160;49.500;7.772;2023-07-29T03:52:25;3.03;;;1.20;;
13793;SDS011;31160;49.500;7.772;2023-07-29T03:54:52;1.23;;;1.10;;
13793;SDS011;31160;49.500;7.772;2023-07-29T03:57:18;1.40;;;1.30;;
13793;SDS011;31160;49.500;7.772;2023-07-29T03:59:45;2.53;;;1.00;;
13793;SDS011;31160;49.500;7.772;2023-07-29T04:02:12;1.20;;;1.10;;
13793;SDS011;31160;49.500;7.772;2023-07-29T04:04:39;3.37;;;1.27;;
13793;SDS011;31160;49.500;7.772;2023-07-29T04:07:06;2.40;;;1.00;;
13793;SDS011;31160;49.500;7.772;2023-07-29T04:09:33;3.67;;;1.10;;
13793;SDS011;31160;49.500;7.772;2023-07-29T04:12:00;2.30;;;0.93;;
13793;SDS011;31160;49.500;7.772;2023-07-29T04:14:27;2.97;;;0.90;;
13793;SDS011;31160;49.500;7.772;2023-07-29T04:16:53;1.37;;;0.90;;
13793;SDS011;31160;49.500;7.772;2023-07-29T04:19:20;1.83;;;1.10;;
13793;SDS011;31160;49.500;7.772;2023-07-29T04:21:47;1.20;;;1.10;;
13793;SDS011;31160;49.500;7.772;2023-07-29T04:24:14;1.60;;;1.13;;
13793;SDS011;31160;49.500;7.772;2023-07-29T04:26:41;1.43;;;1.30;;
13793;SDS011;31160;49.500;7.772;2023-07-29T04:29:07;5.47;;;1.20;;
13793;SDS011;31160;49.500;7.772;2023-07-29T04:31:34;1.33;;;1.23;;
13793;SDS011;31160;49.500;7.772;2023-07-29T04:34:01;5.93;;;1.13;;
13793;SDS011;31160;49.500;7.772;2023-07-29T04:36:28;1.00;;;0.90;;
13793;SDS011;31160;49.500;7.772;2023-07-29T04:38:55;1.20;;;1.10;;
13793;SDS011;31160;49.500;7.772;2023-07-29T04:41:22;2.73;;;1.10;;
13793;SDS011;31160;49.500;7.772;2023-07-29T04:43:50;4.00;;;1.20;;
13793;SDS011;31160;49.500;7.772;2023-07-29T04:46:16;2.93;;;1.37;;
13793;SDS011;31160;49.500;7.772;2023-07-29T04:48:43;1.77;;;1.47;;
13793;SDS011;31160;49.500;7.772;2023-07-29T04:51:10;4.37;;;1.50;;
13793;SDS011;31160;49.500;7.772;2023-07-29T04:53:39;5.60;;;1.50;;
13793;SDS011;31160;49.500;7.772;2023-07-29T04:56:06;2.17;;;1.27;;
13793;SDS011;31160;49.500;7.772;2023-07-29T04:58:32;6.17;;;1.50;;
13793;SDS011;31160;49.500;7.772;2023-07-29T05:01:01;2.20;;;1.27;;
13793;SDS011;31160;49.500;7.772;2023-07-29T05:03:29;2.87;;;1.20;;
13793;SDS011;31160;49.500;7.772;2023-07-29T05:05:57;3.77;;;1.50;;
13793;SDS011;31160;49.500;7.772;2023-07-29T05:08:26;5.90;;;2.33;;
13793;SDS011;31160;49.500;7.772;2023-07-29T05:10:53;2.93;;;1.93;;
13793;SDS011;31160;49.500;7.772;2023-07-29T05:13:22;2.10;;;1.90;;
13793;SDS011;31160;49.500;7.772;2023-07-29T05:15:49;4.10;;;1.50;;
13793;SDS011;31160;49.500;7.772;2023-07-29T05:18:17;2.87;;;1.70;;
13793;SDS011;31160;49.500;7.772;2023-07-29T05:20:44;2.10;;;1.27;;
13793;SDS011;31160;49.500;7.772;2023-07-29T05:23:10;3.13;;;1.33;;
13793;SDS011;31160;49.500;7.772;2023-07-29T05:25:37;3.13;;;1.30;;
13793;SDS011;31160;49.500;7.772;2023-07-29T05:28:04;3.00;;;1.27;;
13793;SDS011;31160;49.500;7.772;2023-07-29T05:30:32;1.30;;;1.20;;
13793;SDS011;31160;49.500;7.772;2023-07-29T05:33:05;2.83;;;1.47;;
13793;SDS011;31160;49.500;7.772;2023-07-29T05:35:34;2.03;;;1.23;;
13793;SDS011;31160;49.500;7.772;2023-07-29T05:38:00;7.57;;;1.60;;
13793;SDS011;31160;49.500;7.772;2023-07-29T05:40:29;4.30;;;1.53;;
13793;SDS011;31160;49.500;7.772;2023-07-29T05:42:56;3.57;;;1.60;;
13793;SDS011;31160;49.500;7.772;2023-07-29T05:45:23;6.77;;;1.33;;
13793;SDS011;31160;49.500;7.772;2023-07-29T05:47:50;5.43;;;1.50;;
13793;SDS011;31160;49.500;7.772;2023-07-29T05:50:17;2.97;;;1.47;;
13793;SDS011;31160;49.500;7.772;2023-07-29T05:52:44;2.03;;;1.53;;
13793;SDS011;31160;49.500;7.772;2023-07-29T05:55:11;4.27;;;1.80;;
13793;SDS011;31160;49.500;7.772;2023-07-29T05:57:38;3.77;;;2.00;;
13793;SDS011;31160;49.500;7.772;2023-07-29T06:00:07;2.77;;;1.70;;
13793;SDS011;31160;49.500;7.772;2023-07-29T06:02:40;2.63;;;2.30;;
13793;SDS011;31160;49.500;7.772;2023-07-29T06:05:11;6.10;;;2.10;;
13793;SDS011;31160;49.500;7.772;2023-07-29T06:07:38;2.60;;;2.30;;
13793;SDS011;31160;49.500;7.772;2023-07-29T06:10:12;2.57;;;2.37;;
13793;SDS011;31160;49.500;7.772;2023-07-29T06:12:39;6.27;;;5.30;;
13793;SDS011;31160;49.500;7.772;2023-07-29T06:15:06;3.13;;;2.50;;
13793;SDS011;31160;49.500;7.772;2023-07-29T06:17:33;3.50;;;2.60;;
13793;SDS011;31160;49.500;7.772;2023-07-29T06:20:00;4.90;;;2.27;;
13793;SDS011;31160;49.500;7.772;2023-07-29T06:22:26;2.10;;;1.90;;
13793;SDS011;31160;49.500;7.772;2023-07-29T06:24:54;1.70;;;1.60;;
13793;SDS011;31160;49.500;7.772;2023-07-29T06:27:20;2.37;;;1.73;;
13793;SDS011;31160;49.500;7.772;2023-07-29T06:29:47;1.90;;;1.80;;
13793;SDS011;31160;49.500;7.772;2023-07-29T06:32:14;6.03;;;2.20;;
13793;SDS011;31160;49.500;7.772;2023-07-29T06:34:41;2.80;;;1.80;;
13793;SDS011;31160;49.500;7.772;2023-07-29T06:37:07;2.07;;;1.90;;
13793;SDS011;31160;49.500;7.772;2023-07-29T06:39:34;2.30;;;2.00;;
13793;SDS011;31160;49.500;7.772;2023-07-29T06:42:01;2.80;;;1.90;;
13793;SDS011;31160;49.500;7.772;2023-07-29T06:44:28;4.77;;;2.27;;
13793;SDS011;31160;49.500;7.772;2023-07-29T06:46:55;3.90;;;1.90;;
13793;SDS011;31160;49.500;7.772;2023-07-29T06:49:23;9.43;;;1.70;;
13793;SDS011;31160;49.500;7.772;2023-07-29T06:51:50;5.50;;;2.00;;
13793;SDS011;31160;49.500;7.772;2023-07-29T06:54:17;7.10;;;2.30;;
13793;SDS011;31160;49.500;7.772;2023-07-29T06:56:44;3.77;;;2.10;;
13793;SDS011;31160;49.500;7.772;2023-07-29T06:59:10;4.17;;;1.77;;
13793;SDS011;31160;49.500;7.772;2023-07-29T07:01:37;6.37;;;1.50;;
13793;SDS011;31160;49.500;7.772;2023-07-29T07:04:04;3.70;;;1.60;;
13793;SDS011;31160;49.500;7.772;2023-07-29T07:06:30;2.70;;;1.23;;
13793;SDS011;31160;49.500;7.772;2023-07-29T07:08:57;3.07;;;1.27;;
13793;SDS011;31160;49.500;7.772;2023-07-29T07:11:24;3.13;;;1.03;;
13793;SDS011;31160;49.500;7.772;2023-07-29T07:13:50;2.53;;;1.00;;
13793;SDS011;31160;49.500;7.772;2023-07-29T07:16:17;3.63;;;1.23;;
13793;SDS011;31160;49.500;7.772;2023-07-29T07:18:44;3.03;;;1.23;;
13793;SDS011;31160;49.500;7.772;2023-07-29T07:21:11;1.23;;;0.80;;
13793;SDS011;31160;49.500;7.772;2023-07-29T07:23:38;2.50;;;0.97;;
13793;SDS011;31160;49.500;7.772;2023-07-29T07:26:05;2.77;;;1.27;;
13793;SDS011;31160;49.500;7.772;2023-07-29T07:28:32;4.23;;;1.20;;
13793;SDS011;31160;49.500;7.772;2023-07-29T07:30:59;4.60;;;1.20;;
13793;SDS011;31160;49.500;7.772;2023-07-29T07:33:25;3.87;;;1.10;;
13793;SDS011;31160;49.500;7.772;2023-07-29T07:35:52;1.33;;;0.93;;
13793;SDS011;31160;49.500;7.772;2023-07-29T07:38:19;1.40;;;1.00;;
13793;SDS011;31160;49.500;7.772;2023-07-29T07:40:55;1.20;;;1.00;;
13793;SDS011;31160;49.500;7.772;2023-07-29T07:43:23;3.27;;;1.10;;
13793;SDS011;31160;49.500;7.772;2023-07-29T07:45:51;1.40;;;0.80;;
13793;SDS011;31160;49.500;7.772;2023-07-29T07:48:23;1.77;;;1.00;;
13793;SDS011;31160;49.500;7.772;2023-07-29T07:50:50;4.20;;;1.00;;
13793;SDS011;31160;49.500;7.772;2023-07-29T07:53:17;1.33;;;0.80;;
13793;SDS011;31160;49.500;7.772;2023-07-29T07:55:43;2.70;;;0.83;;
13793;SDS011;31160;49.500;7.772;2023-07-29T07:58:10;1.10;;;0.80;;
13793;SDS011;31160;49.500;7.772;2023-07-29T08:00:37;2.47;;;0.77;;
13793;SDS011;31160;49.500;7.772;2023-07-29T08:03:03;2.90;;;0.73;;
13793;SDS011;31160;49.500;7.772;2023-07-29T08:05:30;2.00;;;0.93;;
13793;SDS011;31160;49.500;7.772;2023-07-29T08:07:58;2.93;;;0.80;;
13793;SDS011;31160;49.500;7.772;2023-07-29T08:10:24;1.53;;;0.70;;
13793;SDS011;31160;49.500;7.772;2023-07-29T08:12:52;1.57;;;0.80;;
13793;SDS011;31160;49.500;7.772;2023-07-29T08:15:18;3.73;;;0.90;;
13793;SDS011;31160;49.500;7.772;2023-07-29T08:17:45;2.50;;;0.70;;
13793;SDS011;31160;49.500;7.772;2023-07-29T08:20:12;1.10;;;0.80;;
13793;SDS011;31160;49.500;7.772;2023-07-29T08:22:39;2.10;;;0.90;;
13793;SDS011;31160;49.500;7.772;2023-07-29T08:25:06;0.80;;;0.70;;
13793;SDS011;31160;49.500;7.772;2023-07-29T08:27:33;1.27;;;0.90;;
13793;SDS011;31160;49.500;7.772;2023-07-29T08:30:01;0.90;;;0.77;;
13793;SDS011;31160;49.500;7.772;2023-07-29T08:32:27;5.20;;;1.10;;
13793;SDS011;31160;49.500;7.772;2023-07-29T08:34:54;1.53;;;0.83;;
13793;SDS011;31160;49.500;7.772;2023-07-29T08:37:21;2.07;;;0.93;;
13793;SDS011;31160;49.500;7.772;2023-07-29T08:39:48;1.17;;;0.77;;
13793;SDS011;31160;49.500;7.772;2023-07-29T08:42:15;2.23;;;1.17;;
13793;SDS011;31160;49.500;7.772;2023-07-29T08:44:45;2.80;;;1.00;;
13793;SDS011;31160;49.500;7.772;2023-07-29T08:47:14;1.53;;;0.90;;
13793;SDS011;31160;49.500;7.772;2023-07-29T08:49:41;2.97;;;0.90;;
13793;SDS011;31160;49.500;7.772;2023-07-29T08:52:08;2.10;;;1.23;;
13793;SDS011;31160;49.500;7.772;2023-07-29T08:54:36;1.73;;;0.90;;
13793;SDS011;31160;49.500;7.772;2023-07-29T08:57:03;3.00;;;0.90;;
13793;SDS011;31160;49.500;7.772;2023-07-29T08:59:30;2.73;;;1.10;;
13793;SDS011;31160;49.500;7.772;2023-07-29T09:01:57;1.27;;;1.10;;
13793;SDS011;31160;49.500;7.772;2023-07-29T09:04:25;1.17;;;0.90;;
13793;SDS011;31160;49.500;7.772;2023-07-29T09:06:52;1.23;;;1.10;;
13793;SDS011;31160;49.500;7.772;2023-07-29T09:09:21;2.23;;;1.00;;
13793;SDS011;31160;49.500;7.772;2023-07-29T09:11:48;1.90;;;1.30;;
13793;SDS011;31160;49.500;7.772;2023-07-29T09:14:15;1.30;;;1.00;;
13793;SDS011;31160;49.500;7.772;2023-07-29T09:16:42;1.90;;;1.00;;
13793;SDS011;31160;49.500;7.772;2023-07-29T09:19:10;2.47;;;1.07;;
13793;SDS011;31160;49.500;7.772;2023-07-29T09:21:40;1.53;;;1.10;;
13793;SDS011;31160;49.500;7.772;2023-07-29T09:24:07;6.53;;;1.13;;
13793;SDS011;31160;49.500;7.772;2023-07-29T09:26:35;3.30;;;1.50;;
13793;SDS011;31160;49.500;7.772;2023-07-29T09:29:02;0.90;;;0.90;;
13793;SDS011;31160;49.500;7.772;2023-07-29T09:31:29;1.50;;;1.20;;
13793;SDS011;31160;49.500;7.772;2023-07-29T09:33:57;2.97;;;0.87;;
13793;SDS011;31160;49.500;7.772;2023-07-29T09:36:24;1.10;;;1.00;;
13793;SDS011;31160;49.500;7.772;2023-07-29T09:38:55;3.13;;;1.37;;
13793;SDS011;31160;49.500;7.772;2023-07-29T09:41:24;1.87;;;1.23;;
13793;SDS011;31160;49.500;7.772;2023-07-29T09:43:58;3.33;;;1.30;;
13793;SDS011;31160;49.500;7.772;2023-07-29T09:46:32;0.80;;;0.80;;
13793;SDS011;31160;49.500;7.772;2023-07-29T09:49:04;1.30;;;0.80;;
13793;SDS011;31160;49.500;7.772;2023-07-29T09:51:36;1.50;;;1.10;;
13793;SDS011;31160;49.500;7.772;2023-07-29T09:54:06;1.67;;;1.07;;
13793;SDS011;31160;49.500;7.772;2023-07-29T09:56:36;1.63;;;1.20;;
13793;SDS011;31160;49.500;7.772;2023-07-29T09:59:07;1.60;;;1.00;;
13793;SDS011;31160;49.500;7.772;2023-07-29T10:01:33;1.40;;;0.97;;
13793;SDS011;31160;49.500;7.772;2023-07-29T10:04:03;1.83;;;1.20;;
13793;SDS011;31160;49.500;7.772;2023-07-29T10:06:30;2.97;;;1.00;;
13793;SDS011;31160;49.500;7.772;2023-07-29T10:09:01;1.37;;;1.00;;
13793;SDS011;31160;49.500;7.772;2023-07-29T10:11:28;1.00;;;0.90;;
13793;SDS011;31160;49.500;7.772;2023-07-29T10:13:57;1.47;;;0.90;;
13793;SDS011;31160;49.500;7.772;2023-07-29T10:16:39;1.67;;;1.30;;
13793;SDS011;31160;49.500;7.772;2023-07-29T10:19:07;1.77;;;0.97;;
13793;SDS011;31160;49.500;7.772;2023-07-29T10:21:36;1.10;;;1.00;;
13793;SDS011;31160;49.500;7.772;2023-07-29T10:24:06;1.03;;;0.93;;
13793;SDS011;31160;49.500;7.772;2023-07-29T10:26:40;1.40;;;1.30;;
13793;SDS011;31160;49.500;7.772;2023-07-29T10:29:13;1.33;;;0.90;;
13793;SDS011;31160;49.500;7.772;2023-07-29T10:31:44;1.57;;;1.10;;
13793;SDS011;31160;49.500;7.772;2023-07-29T10:34:12;1.33;;;1.00;;
13793;SDS011;31160;49.500;7.772;2023-07-29T10:36:39;2.20;;;1.00;;
13793;SDS011;31160;49.500;7.772;2023-07-29T10:39:07;1.10;;;1.00;;
13793;SDS011;31160;49.500;7.772;2023-07-29T10:47:21;1.17;;;1.00;;
13793;SDS011;31160;49.500;7.772;2023-07-29T10:49:54;1.37;;;1.10;;
13793;SDS011;31160;49.500;7.772;2023-07-29T10:52:37;1.30;;;0.90;;
13793;SDS011;31160;49.500;7.772;2023-07-29T10:55:26;1.03;;;0.80;;
13793;SDS011;31160;49.500;7.772;2023-07-29T10:58:10;2.37;;;0.77;;
13793;SDS011;31160;49.500;7.772;2023-07-29T11:00:43;1.20;;;1.00;;
13793;SDS011;31160;49.500;7.772;2023-07-29T11:03:11;1.40;;;0.93;;
13793;SDS011;31160;49.500;7.772;2023-07-29T11:05:42;1.00;;;0.90;;
13793;SDS011;31160;49.500;7.772;2023-07-29T11:13:29;3.77;;;1.00;;
13793;SDS011;31160;49.500;7.772;2023-07-29T11:15:57;1.17;;;1.07;;
13793;SDS011;31160;49.500;7.772;2023-07-29T11:18:26;0.97;;;0.90;;
13793;SDS011;31160;49.500;7.772;2023-07-29T11:21:00;1.07;;;0.87;;
13793;SDS011;31160;49.500;7.772;2023-07-29T11:23:30;1.13;;;0.90;;
13793;SDS011;31160;49.500;7.772;2023-07-29T11:25:59;1.87;;;1.00;;
13793;SDS011;31160;49.500;7.772;2023-07-29T11:28:26;1.27;;;0.87;;
13793;SDS011;31160;49.500;7.772;2023-07-29T11:30:54;1.83;;;1.00;;
13793;SDS011;31160;49.500;7.772;2023-07-29T11:33:22;1.90;;;1.07;;
13793;SDS011;31160;49.500;7.772;2023-07-29T11:35:54;1.27;;;1.00;;
13793;SDS011;31160;49.500;7.772;2023-07-29T11:38:22;1.00;;;0.90;;
13793;SDS011;31160;49.500;7.772;2023-07-29T11:40:55;0.97;;;0.80;;
13793;SDS011;31160;49.500;7.772;2023-07-29T11:43:26;2.23;;;1.00;;
13793;SDS011;31160;49.500;7.772;2023-07-29T11:45:53;2.97;;;0.97;;
13793;SDS011;31160;49.500;7.772;2023-07-29T11:48:27;1.33;;;0.80;;
13793;SDS011;31160;49.500;7.772;2023-07-29T11:50:54;3.73;;;0.90;;
13793;SDS011;31160;49.500;7.772;2023-07-29T11:53:21;0.80;;;0.80;;
13793;SDS011;31160;49.500;7.772;2023-07-29T11:55:51;1.40;;;1.23;;
13793;SDS011;31160;49.500;7.772;2023-07-29T11:58:21;1.07;;;0.80;;
13793;SDS011;31160;49.500;7.772;2023-07-29T12:00:48;0.87;;;0.70;;
13793;SDS011;31160;49.500;7.772;2023-07-29T12:03:16;1.67;;;1.00;;
13793;SDS011;31160;49.500;7.772;2023-07-29T12:05:44;1.20;;;0.90;;
13793;SDS011;31160;49.500;7.772;2023-07-29T12:08:11;1.43;;;0.83;;
13793;SDS011;31160;49.500;7.772;2023-07-29T12:10:38;2.60;;;0.90;;
13793;SDS011;31160;49.500;7.772;2023-07-29T12:13:05;5.17;;;1.20;;
13793;SDS011;31160;49.500;7.772;2023-07-29T12:15:34;0.83;;;0.80;;
13793;SDS011;31160;49.500;7.772;2023-07-29T12:18:01;1.37;;;1.00;;
13793;SDS011;31160;49.500;7.772;2023-07-29T12:20:29;1.00;;;0.90;;
13793;SDS011;31160;49.500;7.772;2023-07-29T12:22:56;1.10;;;0.80;;
13793;SDS011;31160;49.500;7.772;2023-07-29T12:25:27;1.03;;;0.80;;
13793;SDS011;31160;49.500;7.772;2023-07-29T12:27:54;3.70;;;1.00;;
13793;SDS011;31160;49.500;7.772;2023-07-29T12:30:21;1.30;;;0.70;;
13793;SDS011;31160;49.500;7.772;2023-07-29T12:32:48;1.00;;;0.90;;
13793;SDS011;31160;49.500;7.772;2023-07-29T12:35:15;0.80;;;0.60;;
13793;SDS011;31160;49.500;7.772;2023-07-29T12:37:42;1.90;;;0.90;;
13793;SDS011;31160;49.500;7.772;2023-07-29T12:40:30;1.30;;;0.90;;
13793;SDS011;31160;49.500;7.772;2023-07-29T12:42:56;1.10;;;1.00;;
13793;SDS011;31160;49.500;7.772;2023-07-29T12:45:23;2.77;;;1.00;;
13793;SDS011;31160;49.500;7.772;2023-07-29T12:47:52;2.23;;;1.10;;
13793;SDS011;31160;49.500;7.772;2023-07-29T12:50:19;0.80;;;0.80;;
13793;SDS011;31160;49.500;7.772;2023-07-29T12:52:47;1.47;;;0.70;;
13793;SDS011;31160;49.500;7.772;2023-07-29T12:55:14;1.10;;;0.93;;
13793;SDS011;31160;49.500;7.772;2023-07-29T12:57:41;1.67;;;1.23;;
13793;SDS011;31160;49.500;7.772;2023-07-29T13:00:10;1.17;;;0.90;;
13793;SDS011;31160;49.500;7.772;2023-07-29T13:02:37;1.77;;;1.10;;
13793;SDS011;31160;49.500;7.772;2023-07-29T13:05:04;1.43;;;1.10;;
13793;SDS011;31160;49.500;7.772;2023-07-29T13:07:32;2.23;;;1.07;;
13793;SDS011;31160;49.500;7.772;2023-07-29T13:09:59;1.50;;;0.90;;
13793;SDS011;31160;49.500;7.772;2023-07-29T13:12:26;1.23;;;1.00;;
13793;SDS011;31160;49.500;7.772;2023-07-29T13:14:53;1.50;;;0.80;;
13793;SDS011;31160;49.500;7.772;2023-07-29T13:17:20;1.00;;;0.90;;
13793;SDS011;31160;49.500;7.772;2023-07-29T13:19:48;2.47;;;1.20;;
13793;SDS011;31160;49.500;7.772;2023-07-29T13:22:15;5.37;;;1.10;;
13793;SDS011;31160;49.500;7.772;2023-07-29T13:24:41;1.70;;;0.97;;
13793;SDS011;31160;49.500;7.772;2023-07-29T13:27:08;1.17;;;1.07;;
13793;SDS011;31160;49.500;7.772;2023-07-29T13:29:35;1.40;;;1.23;;
13793;SDS011;31160;49.500;7.772;2023-07-29T13:32:02;1.10;;;1.00;;
13793;SDS011;31160;49.500;7.772;2023-07-29T13:34:28;1.57;;;0.97;;
13793;SDS011;31160;49.500;7.772;2023-07-29T13:36:55;2.60;;;1.10;;
13793;SDS011;31160;49.500;7.772;2023-07-29T13:39:22;4.00;;;1.20;;
13793;SDS011;31160;49.500;7.772;2023-07-29T13:41:49;1.20;;;1.00;;
13793;SDS011;31160;49.500;7.772;2023-07-29T13:44:15;1.10;;;1.00;;
13793;SDS011;31160;49.500;7.772;2023-07-29T13:46:42;1.23;;;1.00;;
13793;SDS011;31160;49.500;7.772;2023-07-29T13:49:09;2.80;;;1.00;;
13793;SDS011;31160;49.500;7.772;2023-07-29T13:51:35;1.10;;;1.00;;
13793;SDS011;31160;49.500;7.772;2023-07-29T13:54:03;1.97;;;1.20;;
13793;SDS011;31160;49.500;7.772;2023-07-29T13:56:29;1.10;;;0.83;;
13793;SDS011;31160;49.500;7.772;2023-07-29T13:58:56;1.10;;;1.00;;
13793;SDS011;31160;49.500;7.772;2023-07-29T14:01:23;1.87;;;1.00;;
13793;SDS011;31160;49.500;7.772;2023-07-29T14:03:50;1.20;;;1.10;;
13793;SDS011;31160;49.500;7.772;2023-07-29T14:06:16;1.17;;;1.00;;
13793;SDS011;31160;49.500;7.772;2023-07-29T14:08:44;1.87;;;1.10;;
13793;SDS011;31160;49.500;7.772;2023-07-29T14:11:10;1.10;;;1.00;;
13793;SDS011;31160;49.500;7.772;2023-07-29T14:13:37;1.10;;;0.80;;
13793;SDS011;31160;49.500;7.772;2023-07-29T14:16:04;2.70;;;1.17;;
13793;SDS011;31160;49.500;7.772;2023-07-29T14:18:30;1.30;;;1.20;;
13793;SDS011;31160;49.500;7.772;2023-07-29T14:20:57;1.37;;;0.90;;
13793;SDS011;31160;49.500;7.772;2023-07-29T14:23:24;2.37;;;1.30;;
13793;SDS011;31160;49.500;7.772;2023-07-29T14:25:51;1.43;;;1.07;;
13793;SDS011;31160;49.500;7.772;2023-07-29T14:28:18;2.27;;;1.37;;
13793;SDS011;31160;49.500;7.772;2023-07-29T14:30:44;1.30;;;1.17;;
13793;SDS011;31160;49.500;7.772;2023-07-29T14:33:11;1.53;;;1.10;;
13793;SDS011;31160;49.500;7.772;2023-07-29T14:35:38;1.50;;;1.10;;
13793;SDS011;31160;49.500;7.772;2023-07-29T14:38:05;1.43;;;0.93;;
13793;SDS011;31160;49.500;7.772;2023-07-29T14:40:31;2.13;;;1.00;;
13793;SDS011;31160;49.500;7.772;2023-07-29T14:42:58;3.63;;;1.30;;
13793;SDS011;31160;49.500;7.772;2023-07-29T14:45:25;2.03;;;1.23;;
13793;SDS011;31160;49.500;7.772;2023-07-29T14:47:52;2.30;;;1.20;;
13793;SDS011;31160;49.500;7.772;2023-07-29T14:50:19;1.10;;;1.00;;
13793;SDS011;31160;49.500;7.772;2023-07-29T14:52:45;2.00;;;1.07;;
13793;SDS011;31160;49.500;7.772;2023-07-29T14:55:12;1.93;;;1.27;;
13793;SDS011;31160;49.500;7.772;2023-07-29T14:57:39;1.20;;;1.10;;
13793;SDS011;31160;49.500;7.772;2023-07-29T15:00:07;2.23;;;1.10;;
13793;SDS011;31160;49.500;7.772;2023-07-29T15:02:34;1.70;;;1.17;;
13793;SDS011;31160;49.500;7.772;2023-07-29T15:05:01;1.20;;;1.07;;